createdAt,value
2023-01-28T00:01:13.916Z,99572.31
2023-01-28T00:03:41.133Z,99577.44
2023-01-28T00:06:14.179Z,99565.53
2023-01-28T00:08:42.024Z,99563.75
2023-01-28T00:11:12.415Z,99565.44
2023-01-28T00:13:39.567Z,99563.75
2023-01-28T00:16:09.705Z,99554.41
2023-01-28T00:18:37.177Z,99545.06
2023-01-28T00:21:09.946Z,99529.75
2023-01-28T00:23:38.806Z,99563.75
2023-01-28T00:26:12.398Z,99534.91
2023-01-28T00:28:39.293Z,99516.38
2023-01-28T00:31:10.904Z,99544.31
2023-01-28T00:33:38.029Z,99544.34
2023-01-28T00:36:07.279Z,99552.09
2023-01-28T00:38:35.542Z,99503.75
2023-01-28T00:41:15.668Z,99546.19
2023-01-28T00:43:44.744Z,99547.03
2023-01-28T00:46:14.091Z,99536.84
2023-01-28T00:48:42.834Z,99546.16
2023-01-28T00:51:12.073Z,99538.47
2023-01-28T00:53:39.768Z,99511.41
2023-01-28T00:56:08.791Z,99542.03
2023-01-28T00:58:35.678Z,99528.44
2023-01-28T01:01:12.832Z,99547.06
2023-01-28T01:03:40.304Z,99523.31
2023-01-28T01:06:08.038Z,99532.59
2023-01-28T01:08:35.318Z,99558.03
2023-01-28T01:11:03.369Z,99530.06
2023-01-28T01:13:31.424Z,99553.84
2023-01-28T01:16:11.301Z,99558.09
2023-01-28T01:18:42.102Z,99553.84
2023-01-28T01:21:17.412Z,99555.50
2023-01-28T01:23:45.083Z,99540.25
2023-01-28T01:26:12.522Z,99549.59
2023-01-28T01:28:39.610Z,99548.75
2023-01-28T01:31:12.749Z,99535.25
2023-01-28T01:33:39.943Z,99535.25
2023-01-28T01:36:07.479Z,99550.56
2023-01-28T01:38:35.504Z,99536.19
2023-01-28T01:41:02.607Z,99550.69
2023-01-28T01:43:51.193Z,99540.47
2023-01-28T01:46:23.896Z,99545.56
2023-01-28T01:48:52.089Z,99556.63
2023-01-28T01:51:25.704Z,99550.69
2023-01-28T01:53:55.071Z,99561.78
2023-01-28T01:56:27.907Z,99560.91
2023-01-28T01:58:57.573Z,99559.19
2023-01-28T02:01:29.355Z,99551.56
2023-01-28T02:04:01.315Z,99570.22
2023-01-28T02:06:28.881Z,99579.63
2023-01-28T02:08:56.687Z,99568.56
2023-01-28T02:11:29.110Z,99563.50
2023-01-28T02:14:00.709Z,99545.66
2023-01-28T02:16:28.948Z,99562.66
2023-01-28T02:18:55.789Z,99569.41
2023-01-28T02:21:56.921Z,99571.03
2023-01-28T02:24:54.580Z,99571.00
2023-01-28T02:27:36.646Z,99558.25
2023-01-28T02:30:21.673Z,99574.44
2023-01-28T02:33:00.438Z,99577.84
2023-01-28T02:36:18.827Z,99572.66
2023-01-28T02:38:52.981Z,99572.59
2023-01-28T02:41:33.371Z,99567.44
2023-01-28T02:44:03.095Z,99575.97
2023-01-28T02:46:48.540Z,99575.91
2023-01-28T02:49:39.213Z,99569.03
2023-01-28T02:52:45.778Z,99575.84
2023-01-28T02:55:27.754Z,99563.06
2023-01-28T02:58:39.014Z,99565.56
2023-01-28T03:01:33.731Z,99572.38
2023-01-28T03:04:23.711Z,99580.09
2023-01-28T03:06:56.176Z,99570.84
2023-01-28T03:09:25.971Z,99581.06
2023-01-28T03:12:21.481Z,99578.53
2023-01-28T03:15:12.683Z,99571.75
2023-01-28T03:18:27.940Z,99586.22
2023-01-28T03:21:34.714Z,99547.22
2023-01-28T03:24:31.641Z,99590.50
2023-01-28T03:27:25.937Z,99573.44
2023-01-28T03:30:15.673Z,99593.03
2023-01-28T03:33:01.898Z,99560.72
2023-01-28T03:35:51.631Z,99582.69
2023-01-28T03:38:23.145Z,99552.09
2023-01-28T03:41:00.601Z,99584.41
2023-01-28T03:43:28.984Z,99559.75
2023-01-28T03:45:56.267Z,99587.75
2023-01-28T03:48:25.757Z,99592.09
2023-01-28T03:50:55.480Z,99598.91
2023-01-28T03:53:23.250Z,99596.41
2023-01-28T03:55:52.076Z,99600.66
2023-01-28T03:58:19.440Z,99597.25
2023-01-28T04:00:47.490Z,99597.31
2023-01-28T04:03:18.035Z,99592.22
2023-01-28T04:05:59.776Z,99601.59
2023-01-28T04:08:26.795Z,99576.97
2023-01-28T04:10:53.560Z,99586.28
2023-01-28T04:13:20.727Z,99555.66
2023-01-28T04:15:48.331Z,99593.00
2023-01-28T04:18:15.388Z,99576.13
2023-01-28T04:20:42.212Z,99594.78
2023-01-28T04:23:09.772Z,99593.09
2023-01-28T04:25:36.615Z,99606.66
2023-01-28T04:28:03.539Z,99615.19
2023-01-28T04:30:30.391Z,99612.66
2023-01-28T04:32:57.191Z,99613.47
2023-01-28T04:35:24.106Z,99617.78
2023-01-28T04:37:50.928Z,99622.84
2023-01-28T04:40:18.026Z,99622.03
2023-01-28T04:42:54.414Z,99610.94
2023-01-28T04:45:21.597Z,99620.28
2023-01-28T04:47:48.559Z,99628.00
2023-01-28T04:50:15.866Z,99635.69
2023-01-28T04:52:42.860Z,99637.31
2023-01-28T04:55:10.836Z,99638.16
2023-01-28T04:57:37.697Z,99635.59
2023-01-28T05:00:05.964Z,99627.97
2023-01-28T05:02:33.136Z,99631.44
2023-01-28T05:05:01.485Z,99630.63
2023-01-28T05:07:28.337Z,99633.16
2023-01-28T05:09:55.118Z,99618.75
2023-01-28T05:12:22.015Z,99627.19
2023-01-28T05:14:48.787Z,99622.06
2023-01-28T05:17:15.676Z,99632.25
2023-01-28T05:19:42.575Z,99628.81
2023-01-28T05:22:09.648Z,99625.44
2023-01-28T05:24:36.453Z,99633.97
2023-01-28T05:27:03.430Z,99637.44
2023-01-28T05:29:30.227Z,99639.94
2023-01-28T05:31:57.046Z,99634.81
2023-01-28T05:34:23.891Z,99639.84
2023-01-28T05:36:50.699Z,99622.78
2023-01-28T05:39:17.478Z,99612.59
2023-01-28T05:41:44.295Z,99638.03
2023-01-28T05:44:11.123Z,99642.25
2023-01-28T05:46:38.138Z,99621.88
2023-01-28T05:49:08.589Z,99634.59
2023-01-28T05:51:35.401Z,99636.25
2023-01-28T05:54:02.208Z,99617.59
2023-01-28T05:56:28.980Z,99643.03
2023-01-28T05:58:55.823Z,99638.78
2023-01-28T06:01:22.641Z,99643.91
2023-01-28T06:03:49.520Z,99646.41
2023-01-28T06:06:16.288Z,99639.66
2023-01-28T06:08:43.114Z,99647.28
2023-01-28T06:11:09.943Z,99653.28
2023-01-28T06:13:37.675Z,99650.69
2023-01-28T06:16:04.999Z,99654.13
2023-01-28T06:18:31.914Z,99650.75
2023-01-28T06:20:58.890Z,99665.25
2023-01-28T06:23:25.710Z,99671.19
2023-01-28T06:25:56.613Z,99658.47
2023-01-28T06:28:24.875Z,99675.47
2023-01-28T06:30:53.209Z,99684.00
2023-01-28T06:33:20.875Z,99683.13
2023-01-28T06:35:47.675Z,99679.75
2023-01-28T06:38:14.797Z,99663.66
2023-01-28T06:40:41.692Z,99695.13
2023-01-28T06:43:08.608Z,99699.44
2023-01-28T06:45:35.473Z,99702.81
2023-01-28T06:48:03.955Z,99701.97
2023-01-28T06:50:30.944Z,99696.84
2023-01-28T06:52:57.815Z,99704.56
2023-01-28T06:55:24.634Z,99668.09
2023-01-28T06:57:51.548Z,99712.25
2023-01-28T07:00:19.144Z,99707.13
2023-01-28T07:02:46.059Z,99717.41
2023-01-28T07:05:12.893Z,99720.00
2023-01-28T07:07:41.879Z,99699.63
2023-01-28T07:10:10.721Z,99656.31
2023-01-28T07:12:37.610Z,99714.97
2023-01-28T07:15:04.912Z,99708.22
2023-01-28T07:17:31.962Z,99723.63
2023-01-28T07:19:58.927Z,99728.75
2023-01-28T07:22:25.790Z,99718.53
2023-01-28T07:24:52.644Z,99728.75
2023-01-28T07:27:19.407Z,99729.63
2023-01-28T07:29:46.178Z,99737.31
2023-01-28T07:32:13.014Z,99733.91
2023-01-28T07:34:41.694Z,99734.72
2023-01-28T07:37:09.722Z,99738.09
2023-01-28T07:39:36.530Z,99734.72
2023-01-28T07:42:03.420Z,99727.09
2023-01-28T07:44:30.226Z,99748.38
2023-01-28T07:46:57.087Z,99739.84
2023-01-28T07:49:23.958Z,99734.72
2023-01-28T07:51:51.007Z,99743.25
2023-01-28T07:54:17.900Z,99734.75
2023-01-28T07:56:44.814Z,99735.59
2023-01-28T07:59:11.816Z,99734.72
2023-01-28T08:01:38.727Z,99738.13
2023-01-28T08:04:05.757Z,99747.50
2023-01-28T08:06:37.741Z,99740.69
2023-01-28T08:09:06.163Z,99758.56
2023-01-28T08:11:33.228Z,99757.69
2023-01-28T08:14:00.392Z,99744.91
2023-01-28T08:16:28.692Z,99752.56
2023-01-28T08:18:55.635Z,99734.81
2023-01-28T08:21:22.632Z,99763.69
2023-01-28T08:23:49.579Z,99766.25
2023-01-28T08:26:16.421Z,99757.69
2023-01-28T08:28:43.314Z,99765.34
2023-01-28T08:31:10.845Z,99765.28
2023-01-28T08:33:37.907Z,99753.41
2023-01-28T08:36:05.896Z,99763.56
2023-01-28T08:38:32.962Z,99774.69
2023-01-28T08:40:59.953Z,99768.72
2023-01-28T08:43:26.873Z,99772.06
2023-01-28T08:45:53.751Z,99773.75
2023-01-28T08:48:20.924Z,99777.16
2023-01-28T08:50:47.751Z,99777.09
2023-01-28T08:53:17.834Z,99772.78
2023-01-28T08:55:47.307Z,99777.09
2023-01-28T08:58:17.151Z,99774.47
2023-01-28T09:00:45.740Z,99775.28
2023-01-28T09:03:12.830Z,99770.22
2023-01-28T09:05:39.951Z,99782.09
2023-01-28T09:08:13.099Z,99764.22
2023-01-28T09:10:41.236Z,99777.81
2023-01-28T09:13:11.820Z,99780.38
2023-01-28T09:15:38.975Z,99763.34
2023-01-28T09:18:06.361Z,99787.13
2023-01-28T09:20:33.579Z,99785.44
2023-01-28T09:23:01.729Z,99787.13
2023-01-28T09:25:28.756Z,99792.25
2023-01-28T09:27:55.624Z,99793.03
2023-01-28T09:30:22.697Z,99793.06
2023-01-28T09:32:53.573Z,99801.56
2023-01-28T09:35:21.047Z,99807.50
2023-01-28T09:37:48.766Z,99815.19
2023-01-28T09:40:28.719Z,99805.78
2023-01-28T09:42:59.728Z,99803.22
2023-01-28T09:45:55.918Z,99790.47
2023-01-28T09:48:45.491Z,99805.78
2023-01-28T09:51:34.961Z,99816.84
2023-01-28T09:54:21.147Z,99822.84
2023-01-28T09:56:51.853Z,99827.94
2023-01-28T09:59:22.210Z,99816.81
2023-01-28T10:02:23.295Z,99822.78
2023-01-28T10:05:19.407Z,99821.84
2023-01-28T10:08:00.548Z,99832.09
2023-01-28T10:10:34.445Z,99822.69
2023-01-28T10:13:49.673Z,99809.03
2023-01-28T10:16:29.908Z,99823.47
2023-01-28T10:19:29.091Z,99813.22
2023-01-28T10:22:22.133Z,99797.97
2023-01-28T10:25:06.599Z,99820.03
2023-01-28T10:27:36.229Z,99810.63
2023-01-28T10:30:23.388Z,99802.06
2023-01-28T10:32:56.979Z,99799.47
2023-01-28T10:35:24.151Z,99805.47
2023-01-28T10:37:59.510Z,99797.00
2023-01-28T10:40:26.322Z,99805.53
2023-01-28T10:42:53.131Z,99786.72
2023-01-28T10:45:35.047Z,99796.06
2023-01-28T10:48:32.078Z,99779.91
2023-01-28T10:51:02.499Z,99770.63
2023-01-28T10:53:42.320Z,99781.66
2023-01-28T10:56:32.600Z,99789.34
2023-01-28T10:59:03.873Z,99796.09
2023-01-28T11:01:48.086Z,99802.91
2023-01-28T11:04:36.124Z,99786.75
2023-01-28T11:07:18.083Z,99796.06
2023-01-28T11:09:51.317Z,99799.44
2023-01-28T11:12:30.070Z,99773.16
2023-01-28T11:15:00.113Z,99806.31
2023-01-28T11:17:34.708Z,99803.78
2023-01-28T11:20:17.836Z,99804.72
2023-01-28T11:22:45.612Z,99800.41
2023-01-28T11:25:27.626Z,99811.53
2023-01-28T11:27:55.308Z,99806.31
2023-01-28T11:30:34.961Z,99797.84
2023-01-28T11:33:17.314Z,99814.84
2023-01-28T11:35:58.492Z,99810.59
2023-01-28T11:38:26.716Z,99805.47
2023-01-28T11:40:57.213Z,99812.25
2023-01-28T11:43:27.468Z,99822.50
2023-01-28T11:46:18.418Z,99815.66
2023-01-28T11:49:14.153Z,99812.28
2023-01-28T11:52:22.857Z,99811.50
2023-01-28T11:55:19.645Z,99811.44
2023-01-28T11:58:04.237Z,99802.03
2023-01-28T12:01:02.273Z,99807.16
2023-01-28T12:04:07.164Z,99816.50
2023-01-28T12:06:42.629Z,99817.31
2023-01-28T12:09:53.432Z,99801.16
2023-01-28T12:12:41.881Z,99810.66
2023-01-28T12:15:33.082Z,99797.84
2023-01-28T12:18:31.942Z,99804.72
2023-01-28T12:21:31.504Z,99803.91
2023-01-28T12:24:38.100Z,99805.59
2023-01-28T12:27:29.163Z,99799.50
2023-01-28T12:30:19.273Z,99806.31
2023-01-28T12:33:23.476Z,99803.78
2023-01-28T12:36:32.808Z,99806.34
2023-01-28T12:39:20.078Z,99797.84
2023-01-28T12:42:13.874Z,99819.25
2023-01-28T12:45:05.665Z,99812.50
2023-01-28T12:47:38.130Z,99793.75
2023-01-28T12:50:20.794Z,99803.00
2023-01-28T12:52:55.699Z,99807.22
2023-01-28T12:55:44.280Z,99782.53
2023-01-28T12:58:20.401Z,99802.06
2023-01-28T13:00:55.000Z,99781.69
2023-01-28T13:03:30.753Z,99802.97
2023-01-28T13:06:10.581Z,99797.78
2023-01-28T13:08:37.473Z,99796.09
2023-01-28T13:11:05.516Z,99786.75
2023-01-28T13:13:42.268Z,99798.66
2023-01-28T13:16:10.947Z,99802.09
2023-01-28T13:18:40.893Z,99801.19
2023-01-28T13:21:15.689Z,99799.47
2023-01-28T13:23:46.465Z,99798.66
2023-01-28T13:26:19.494Z,99803.06
2023-01-28T13:28:51.575Z,99797.94
2023-01-28T13:31:22.376Z,99746.94
2023-01-28T13:34:03.539Z,99797.84
2023-01-28T13:36:47.797Z,99796.16
2023-01-28T13:39:14.484Z,99792.75
2023-01-28T13:41:43.983Z,99779.22
2023-01-28T13:44:40.164Z,99797.91
2023-01-28T13:47:25.459Z,99791.03
2023-01-28T13:50:13.853Z,99796.19
2023-01-28T13:53:07.631Z,99798.78
2023-01-28T13:55:45.340Z,99805.63
2023-01-28T13:58:49.729Z,99800.41
2023-01-28T14:01:28.067Z,99803.88
2023-01-28T14:04:24.700Z,99810.75
2023-01-28T14:07:34.850Z,99809.06
2023-01-28T14:10:33.764Z,99812.53
2023-01-28T14:14:03.067Z,99823.59
2023-01-28T14:17:03.913Z,99819.34
2023-01-28T14:19:38.225Z,99828.78
2023-01-28T14:22:10.678Z,99837.34
2023-01-28T14:24:38.655Z,99831.38
2023-01-28T14:27:23.205Z,99838.16
2023-01-28T14:30:03.277Z,99848.34
2023-01-28T14:32:33.634Z,99834.69
2023-01-28T14:35:07.851Z,99826.97
2023-01-28T14:37:35.792Z,99847.44
2023-01-28T14:40:08.361Z,99844.88
2023-01-28T14:42:50.872Z,99848.28
2023-01-28T14:46:00.150Z,99852.59
2023-01-28T14:48:51.463Z,99856.00
2023-01-28T14:52:12.411Z,99855.13
2023-01-28T14:54:58.306Z,99839.91
2023-01-28T14:57:46.721Z,99867.09
2023-01-28T15:00:34.905Z,99861.94
2023-01-28T15:03:24.835Z,99869.63
2023-01-28T15:06:18.491Z,99863.66
2023-01-28T15:08:45.356Z,99870.47
2023-01-28T15:11:18.303Z,99873.00
2023-01-28T15:13:49.508Z,99881.59
2023-01-28T15:16:21.576Z,99876.41
2023-01-28T15:18:50.952Z,99876.47
2023-01-28T15:21:23.416Z,99881.56
2023-01-28T15:23:55.174Z,99872.19
2023-01-28T15:26:31.784Z,99872.19
2023-01-28T15:29:00.366Z,99887.56
2023-01-28T15:31:34.394Z,99886.69
2023-01-28T15:34:19.475Z,99894.34
2023-01-28T15:36:47.862Z,99885.84
2023-01-28T15:39:20.817Z,99901.28
2023-01-28T15:41:56.446Z,99878.28
2023-01-28T15:44:37.792Z,99902.16
2023-01-28T15:47:33.727Z,99902.16
2023-01-28T15:50:05.503Z,99879.25
2023-01-28T15:52:37.106Z,99903.06
2023-01-28T15:55:06.663Z,99903.91
2023-01-28T15:57:35.156Z,99914.94
2023-01-28T16:00:12.159Z,99907.28
2023-01-28T16:02:54.201Z,99909.78
2023-01-28T16:05:36.817Z,99911.47
2023-01-28T16:08:17.194Z,99920.00
2023-01-28T16:10:56.631Z,99922.56
2023-01-28T16:13:31.177Z,99915.78
2023-01-28T16:15:59.476Z,99914.94
2023-01-28T16:18:51.747Z,99918.34
2023-01-28T16:21:29.795Z,99924.34
2023-01-28T16:24:06.475Z,99932.06
2023-01-28T16:26:35.546Z,99928.66
2023-01-28T16:29:16.974Z,99936.38
2023-01-28T16:31:43.888Z,99911.66
2023-01-28T16:34:11.714Z,99944.88
2023-01-28T16:36:38.635Z,99939.72
2023-01-28T16:39:05.929Z,99922.66
2023-01-28T16:41:47.258Z,99939.63
2023-01-28T16:44:14.994Z,99938.81
2023-01-28T16:46:42.915Z,99955.88
2023-01-28T16:49:10.532Z,99938.00
2023-01-28T16:51:41.074Z,99947.31
2023-01-28T16:54:11.946Z,99955.88
2023-01-28T16:56:46.868Z,99944.72
2023-01-28T16:59:15.863Z,99947.28
2023-01-28T17:01:46.420Z,99948.09
2023-01-28T17:04:13.576Z,99954.91
2023-01-28T17:06:43.675Z,99954.91
2023-01-28T17:09:12.691Z,99959.16
2023-01-28T17:11:40.599Z,99952.34
2023-01-28T17:14:08.557Z,99937.81
2023-01-28T17:16:35.770Z,99940.38
2023-01-28T17:19:02.818Z,99939.53
2023-01-28T17:21:29.778Z,99931.03
2023-01-28T17:23:58.376Z,99940.38
2023-01-28T17:26:26.507Z,99948.06
2023-01-28T17:28:53.865Z,99944.66
2023-01-28T17:31:21.971Z,99953.22
2023-01-28T17:33:57.188Z,99957.50
2023-01-28T17:36:26.133Z,99956.69
2023-01-28T17:38:53.780Z,99944.81
2023-01-28T17:41:21.087Z,99940.50
2023-01-28T17:43:56.420Z,99955.00
2023-01-28T17:46:25.635Z,99945.56
2023-01-28T17:48:53.435Z,99949.00
2023-01-28T17:51:20.345Z,99969.44
2023-01-28T17:53:49.771Z,99965.16
2023-01-28T17:56:26.274Z,99971.13
2023-01-28T17:59:03.459Z,99970.28
2023-01-28T18:01:31.124Z,99978.88
2023-01-28T18:03:59.235Z,99975.41
2023-01-28T18:06:35.600Z,99979.69
2023-01-28T18:09:03.779Z,99974.59
2023-01-28T18:11:32.813Z,99978.03
2023-01-28T18:13:59.666Z,99985.72
2023-01-28T18:16:26.876Z,99989.16
2023-01-28T18:18:53.776Z,99992.59
2023-01-28T18:21:51.349Z,99986.59
2023-01-28T18:24:19.092Z,99984.91
2023-01-28T18:26:46.035Z,99986.63
2023-01-28T18:29:16.893Z,99985.78
2023-01-28T18:31:44.309Z,99987.47
2023-01-28T18:34:11.240Z,99986.66
2023-01-28T18:36:38.129Z,99987.53
2023-01-28T18:39:04.967Z,99985.00
2023-01-28T18:41:31.778Z,99986.69
2023-01-28T18:43:58.750Z,99981.59
2023-01-28T18:46:25.569Z,99976.50
2023-01-28T18:48:52.824Z,99973.06
2023-01-28T18:51:29.975Z,99959.47
2023-01-28T18:53:59.873Z,99981.69
2023-01-28T18:56:28.560Z,99985.13
2023-01-28T18:58:57.511Z,99979.16
2023-01-28T19:01:24.449Z,100000.47
2023-01-28T19:03:51.430Z,100007.34
2023-01-28T19:06:18.329Z,99998.00
2023-01-28T19:08:45.233Z,99985.22
2023-01-28T19:11:13.093Z,100009.09
2023-01-28T19:13:39.914Z,99978.50
2023-01-28T19:16:06.946Z,100012.59
2023-01-28T19:18:33.826Z,100018.56
2023-01-28T19:21:07.684Z,100017.66
2023-01-28T19:23:49.115Z,100015.13
2023-01-28T19:26:21.010Z,100012.66
2023-01-28T19:28:49.349Z,100021.22
2023-01-28T19:31:18.817Z,100021.22
2023-01-28T19:33:46.791Z,100021.25
2023-01-28T19:36:14.775Z,100019.50
2023-01-28T19:38:42.054Z,99999.06
2023-01-28T19:41:09.152Z,100006.69
2023-01-28T19:43:36.073Z,100020.34
2023-01-28T19:46:05.979Z,100020.38
2023-01-28T19:48:33.397Z,100022.91
2023-01-28T19:51:08.739Z,100016.09
2023-01-28T19:53:36.623Z,100017.81
2023-01-28T19:56:06.560Z,100023.78
2023-01-28T19:58:35.174Z,100019.50
2023-01-28T20:01:20.635Z,100019.53
2023-01-28T20:03:52.703Z,100029.75
2023-01-28T20:06:19.657Z,100022.03
2023-01-28T20:08:56.264Z,100024.59
2023-01-28T20:11:23.788Z,100021.19
2023-01-28T20:13:52.106Z,100033.09
2023-01-28T20:16:25.429Z,100028.81
2023-01-28T20:18:55.794Z,100000.69
2023-01-28T20:21:23.542Z,100021.97
2023-01-28T20:23:53.473Z,100022.00
2023-01-28T20:26:24.605Z,100021.97
2023-01-28T20:28:51.866Z,100031.31
2023-01-28T20:31:20.082Z,100034.75
2023-01-28T20:33:47.083Z,100027.06
2023-01-28T20:36:14.640Z,100026.22
2023-01-28T20:38:46.471Z,100035.59
2023-01-28T20:41:20.219Z,100041.56
2023-01-28T20:43:48.435Z,100039.06
2023-01-28T20:46:22.151Z,100043.34
2023-01-28T20:48:49.473Z,100050.19
2023-01-28T20:51:23.990Z,100053.66
2023-01-28T20:53:51.807Z,100043.50
2023-01-28T20:56:22.232Z,100075.88
2023-01-28T20:58:55.480Z,100081.84
2023-01-28T21:01:26.023Z,100077.56
2023-01-28T21:03:52.971Z,100076.75
2023-01-28T21:06:20.078Z,100071.63
2023-01-28T21:08:46.962Z,100085.28
2023-01-28T21:11:14.480Z,100076.72
2023-01-28T21:13:41.466Z,100082.69
2023-01-28T21:16:08.483Z,100080.13
2023-01-28T21:18:35.404Z,100069.91
2023-01-28T21:21:09.702Z,100080.16
2023-01-28T21:23:36.508Z,100070.78
2023-01-28T21:26:05.879Z,100074.19
2023-01-28T21:28:33.055Z,100083.56
2023-01-28T21:31:16.148Z,100086.13
2023-01-28T21:33:43.322Z,100083.56
2023-01-28T21:36:13.509Z,100076.78
2023-01-28T21:38:40.912Z,100082.72
2023-01-28T21:41:09.035Z,100075.91
2023-01-28T21:43:35.931Z,100051.19
2023-01-28T21:46:03.273Z,100062.22
2023-01-28T21:48:30.758Z,100049.44
2023-01-28T21:51:24.579Z,100063.94
2023-01-28T21:53:51.502Z,100056.28
2023-01-28T21:56:18.331Z,100063.97
2023-01-28T21:59:03.660Z,100069.91
2023-01-28T22:01:30.619Z,100075.91
2023-01-28T22:03:57.719Z,100075.91
2023-01-28T22:06:24.593Z,100069.94
2023-01-28T22:08:54.770Z,100076.81
2023-01-28T22:11:21.681Z,100068.25
2023-01-28T22:13:48.592Z,100055.47
2023-01-28T22:16:16.537Z,100060.59
2023-01-28T22:18:43.386Z,100072.50
2023-01-28T22:21:12.939Z,100062.28
2023-01-28T22:23:40.088Z,100081.06
2023-01-28T22:26:07.089Z,100079.38
2023-01-28T22:28:33.923Z,100054.59
2023-01-28T22:31:13.674Z,100080.22
2023-01-28T22:33:41.578Z,100085.31
2023-01-28T22:36:13.809Z,100084.47
2023-01-28T22:38:43.591Z,100069.97
2023-01-28T22:41:19.597Z,100086.16
2023-01-28T22:43:46.735Z,100086.16
2023-01-28T22:46:14.264Z,100078.50
2023-01-28T22:48:41.654Z,100083.59
2023-01-28T22:51:17.228Z,100075.91
2023-01-28T22:53:45.508Z,100084.47
2023-01-28T22:56:13.279Z,100073.38
2023-01-28T22:58:40.291Z,100069.09
2023-01-28T23:01:07.690Z,100075.88
2023-01-28T23:03:35.540Z,100080.19
2023-01-28T23:06:05.117Z,100080.16
2023-01-28T23:08:33.442Z,100055.41
2023-01-28T23:11:02.500Z,100071.59
2023-01-28T23:13:53.535Z,100075.03
2023-01-28T23:16:38.777Z,100079.31
2023-01-28T23:19:24.279Z,100074.22
2023-01-28T23:22:09.735Z,100078.47
2023-01-28T23:24:36.563Z,100092.97
2023-01-28T23:27:03.825Z,100078.47
2023-01-28T23:29:31.895Z,100090.41
2023-01-28T23:32:07.175Z,100067.41
2023-01-28T23:34:37.524Z,100079.31
2023-01-28T23:37:08.202Z,100081.88
2023-01-28T23:39:35.295Z,100065.69
2023-01-28T23:42:23.642Z,100084.44
2023-01-28T23:44:50.489Z,100083.59
2023-01-28T23:47:18.144Z,100083.63
2023-01-28T23:49:45.245Z,100076.78
2023-01-28T23:52:12.087Z,100071.69
2023-01-28T23:54:38.910Z,100075.09
2023-01-28T23:57:05.996Z,100074.25
2023-01-28T23:59:32.827Z,100068.28
